Bruksela, Belgia

10:39 CET dnia 26-listopad-2014 (GMT +0100)
Berg | Change Station
CLOSE
Current Station
Stacja PWS
Location: Kampenhout, VLAAMS BRABANT
n.p.m.: 54 ft
Najbliższa stacja pogodowa

Wysokość 54 ft 50.93 °N, 4.53 °E | Updated 7 minutes ago

Mostly Cloudy
przewaga chmur
43.3 ° F
Odczuwalna 43 ° F
Płn.
0.0
Wiatr zmienny Wiatr od wschodni
Gusts 2.0 mph

Dziś
Wysoka -- | Niska -- ° F
--% Prawdop. opadów
Wczoraj
Wysoka -- | Niska -- ° F
Precip. -- cali
8:15 AM 4:42 PM
Powiększający się sierp Księżyca, 18% visible
Ciśnienie 29.95 cali
Widzialność -9999.0 mil
chmury Niewiele 7000 ft
obłoki zanikające 8500 ft
przewaga chmur 10000 ft
czynnik chłodzący wiatru 43 ° F
Punkt rosy 42 ° F
Wilgotność 93%
Opady deszczu 0.00 cali
grubość pokrywy śnieżnej Niedostępne.
UV 0.0 z 12
Pyłki Niedostępne.
Jakość powietrza Niedostępne.
Flu Activity Niedostępne.
METAR EBBE 260925Z 09005KT 4800 BR FEW070 SCT085 BKN100 05/04 Q1014 GRN WHT TEMPO GRN

More Conditions Fewer Conditions

Ciśnienie 29.95 cali
Widzialność -9999.0 mil
chmury Niewiele 7000 ft
obłoki zanikające 8500 ft
przewaga chmur 10000 ft
czynnik chłodzący wiatru 43 ° F
Punkt rosy 42 ° F
Wilgotność 93%
Opady deszczu 0.00 cali
grubość pokrywy śnieżnej Niedostępne.
UV 0.0 z 12
Pyłki Niedostępne.
Jakość powietrza Niedostępne.
Flu Activity Niedostępne.
METAR EBBE 260925Z 09005KT 4800 BR FEW070 SCT085 BKN100 05/04 Q1014 GRN WHT TEMPO GRN

More Conditions Fewer Conditions

10-Day Weather Forecast

Almanac

Astronomia

Nov. 26, 2014 Wschód Zachów
Aktualny czas
Zmierzch cywilny
Zmierzch żeglarski
świt/zmierzch astronomiczny
Księżyc
całkowite oświetlenie
Długość dnia
Tomorrow will be .
, % of the Moon is Illuminated

Dzisiejsze ekstrema

Country Highs Country Lows

Community

WunderPhotos

Upload Photos

1,773,702 zdjęcia zostały przesłane!

WunderBlogs® & News

Nearby

Jakość powietrza

  Jakość powietrza czynnik AQ Zanieczyszczenie
Not available.

Głębokość pokrywy śnieżnej

Station Depth n.p.m.

Aktywność sejsmiczna

Miejscowość Distance Mag. Time & Date
Minimum magnitude displayed is 2.5.

Temperatury wody na wybrzeżu

Miejsce Temperatura

Najbliższa stacja pogodowa